createdAt,value
2023-05-29T00:01:28.289Z,13.24
2023-05-29T00:03:54.927Z,13.20
2023-05-29T00:06:21.505Z,13.13
2023-05-29T00:08:48.033Z,13.10
2023-05-29T00:11:14.569Z,12.96
2023-05-29T00:13:41.437Z,12.94
2023-05-29T00:16:10.267Z,12.82
2023-05-29T00:18:37.136Z,12.73
2023-05-29T00:21:03.812Z,12.68
2023-05-29T00:23:30.255Z,12.62
2023-05-29T00:25:56.846Z,12.67
2023-05-29T00:28:23.489Z,12.65
2023-05-29T00:30:50.033Z,12.64
2023-05-29T00:33:16.622Z,12.63
2023-05-29T00:35:43.174Z,12.53
2023-05-29T00:38:09.649Z,12.61
2023-05-29T00:40:36.130Z,12.62
2023-05-29T00:43:02.647Z,12.65
2023-05-29T00:45:29.210Z,12.66
2023-05-29T00:47:55.845Z,12.68
2023-05-29T00:50:22.957Z,12.55
2023-05-29T00:52:49.429Z,12.46
2023-05-29T00:55:16.833Z,12.36
2023-05-29T00:57:43.828Z,12.37
2023-05-29T01:00:14.807Z,12.39
2023-05-29T01:02:45.980Z,12.32
2023-05-29T01:05:13.406Z,12.29
2023-05-29T01:07:39.953Z,12.27
2023-05-29T01:10:07.535Z,12.21
2023-05-29T01:12:44.926Z,12.17
2023-05-29T01:15:17.325Z,12.14
2023-05-29T01:18:21.594Z,12.07
2023-05-29T01:20:53.908Z,12.02
2023-05-29T01:23:46.891Z,11.96
2023-05-29T01:26:32.921Z,11.88
2023-05-29T01:29:03.065Z,11.83
2023-05-29T01:31:31.094Z,11.70
2023-05-29T01:34:00.487Z,11.70
2023-05-29T01:36:27.910Z,11.67
2023-05-29T01:38:57.219Z,11.58
2023-05-29T01:41:25.425Z,11.63
2023-05-29T01:43:54.265Z,11.56
2023-05-29T01:46:22.526Z,11.54
2023-05-29T01:48:49.146Z,11.54
2023-05-29T01:51:16.068Z,11.45
2023-05-29T01:53:43.846Z,11.46
2023-05-29T01:56:11.226Z,11.39
2023-05-29T01:58:39.622Z,11.40
2023-05-29T02:01:07.408Z,11.39
2023-05-29T02:03:34.878Z,11.32
2023-05-29T02:06:01.569Z,11.32
2023-05-29T02:08:28.238Z,11.27
2023-05-29T02:10:55.110Z,11.23
2023-05-29T02:13:22.080Z,11.26
2023-05-29T02:15:48.640Z,11.18
2023-05-29T02:18:18.385Z,11.18
2023-05-29T02:20:45.250Z,11.12
2023-05-29T02:23:11.873Z,11.09
2023-05-29T02:25:38.375Z,11.07
2023-05-29T02:28:04.853Z,11.05
2023-05-29T02:30:31.683Z,11.08
2023-05-29T02:32:58.421Z,11.01
2023-05-29T02:35:24.990Z,10.93
2023-05-29T02:37:51.908Z,10.92
2023-05-29T02:40:18.924Z,10.92
2023-05-29T02:42:45.854Z,10.89
2023-05-29T02:45:12.497Z,10.77
2023-05-29T02:47:39.432Z,10.78
2023-05-29T02:50:06.544Z,10.78
2023-05-29T02:52:33.543Z,10.79
2023-05-29T02:55:00.009Z,10.76
2023-05-29T02:57:26.802Z,10.71
2023-05-29T02:59:53.711Z,10.64
2023-05-29T03:02:20.281Z,10.64
2023-05-29T03:04:47.112Z,10.59
2023-05-29T03:07:13.776Z,10.59
2023-05-29T03:09:40.229Z,10.58
2023-05-29T03:12:06.961Z,10.58
2023-05-29T03:14:36.942Z,10.44
2023-05-29T03:17:07.940Z,10.46
2023-05-29T03:19:34.412Z,10.36
2023-05-29T03:22:00.882Z,10.35
2023-05-29T03:24:28.569Z,10.36
2023-05-29T03:26:55.050Z,10.33
2023-05-29T03:29:21.496Z,10.36
2023-05-29T03:31:48.142Z,10.37
2023-05-29T03:34:14.923Z,10.42
2023-05-29T03:36:41.353Z,10.49
2023-05-29T03:39:07.756Z,10.50
2023-05-29T03:41:34.235Z,10.54
2023-05-29T03:44:00.712Z,10.54
2023-05-29T03:46:28.458Z,10.58
2023-05-29T03:48:54.969Z,10.49
2023-05-29T03:51:21.434Z,10.53
2023-05-29T03:53:47.856Z,10.62
2023-05-29T03:56:17.300Z,10.64
2023-05-29T03:58:43.794Z,10.72
2023-05-29T04:01:10.523Z,10.77
2023-05-29T04:03:37.534Z,10.83
2023-05-29T04:06:04.230Z,11.03
2023-05-29T04:08:30.858Z,11.56
2023-05-29T04:10:57.345Z,12.21
2023-05-29T04:13:23.851Z,12.78
2023-05-29T04:15:53.817Z,13.45
2023-05-29T04:18:21.643Z,13.92
2023-05-29T04:20:50.667Z,14.29
2023-05-29T04:23:17.190Z,14.62
2023-05-29T04:25:44.935Z,15.02
2023-05-29T04:28:11.815Z,15.43
2023-05-29T04:30:40.167Z,15.83
2023-05-29T04:33:06.756Z,15.84
2023-05-29T04:35:33.314Z,16.49
2023-05-29T04:37:59.796Z,16.81
2023-05-29T04:40:26.238Z,17.25
2023-05-29T04:42:53.696Z,17.26
2023-05-29T04:45:21.886Z,17.64
2023-05-29T04:47:48.539Z,18.03
2023-05-29T04:50:17.567Z,18.44
2023-05-29T04:52:44.355Z,18.90
2023-05-29T04:55:11.617Z,19.21
2023-05-29T04:57:38.357Z,19.08
2023-05-29T05:00:08.075Z,18.56
2023-05-29T05:02:34.730Z,18.71
2023-05-29T05:05:01.361Z,19.18
2023-05-29T05:07:27.786Z,20.22
2023-05-29T05:09:56.566Z,20.43
2023-05-29T05:12:22.995Z,20.55
2023-05-29T05:14:49.452Z,21.27
2023-05-29T05:17:15.921Z,21.25
2023-05-29T05:19:42.416Z,22.03
2023-05-29T05:22:08.878Z,21.75
2023-05-29T05:24:36.129Z,21.84
2023-05-29T05:27:04.346Z,22.50
2023-05-29T05:29:31.006Z,22.39
2023-05-29T05:31:57.476Z,22.76
2023-05-29T05:34:23.971Z,23.32
2023-05-29T05:36:50.516Z,22.68
2023-05-29T05:39:17.072Z,23.01
2023-05-29T05:41:43.582Z,23.40
2023-05-29T05:44:10.044Z,23.58
2023-05-29T05:46:36.633Z,23.18
2023-05-29T05:49:05.406Z,23.01
2023-05-29T05:51:32.147Z,23.46
2023-05-29T05:53:58.565Z,23.67
2023-05-29T05:56:25.039Z,24.12
2023-05-29T05:58:51.521Z,23.49
2023-05-29T06:01:17.990Z,23.42
2023-05-29T06:03:44.569Z,23.13
2023-05-29T06:06:14.107Z,24.17
2023-05-29T06:08:45.517Z,24.82
2023-05-29T06:11:12.503Z,24.80
2023-05-29T06:13:39.039Z,24.91
2023-05-29T06:16:14.400Z,25.78
2023-05-29T06:18:41.015Z,25.78
2023-05-29T06:21:08.411Z,24.98
2023-05-29T06:23:35.630Z,24.89
2023-05-29T06:26:04.428Z,26.38
2023-05-29T06:28:31.227Z,25.59
2023-05-29T06:30:57.978Z,26.07
2023-05-29T06:33:25.229Z,25.83
2023-05-29T06:35:51.708Z,25.84
2023-05-29T06:38:18.203Z,26.45
2023-05-29T06:40:44.654Z,26.23
2023-05-29T06:43:11.669Z,25.96
2023-05-29T06:45:41.783Z,26.55
2023-05-29T06:48:08.384Z,26.64
2023-05-29T06:50:35.029Z,27.04
2023-05-29T06:53:01.617Z,27.68
2023-05-29T06:55:28.251Z,27.74
2023-05-29T06:57:54.707Z,27.19
2023-05-29T07:00:21.250Z,28.49
2023-05-29T07:02:47.752Z,28.72
2023-05-29T07:05:14.286Z,28.21
2023-05-29T07:07:40.838Z,28.12
2023-05-29T07:10:07.529Z,28.03
2023-05-29T07:12:34.013Z,28.19
2023-05-29T07:15:00.503Z,28.55
2023-05-29T07:17:27.132Z,28.29
2023-05-29T07:19:55.239Z,28.14
2023-05-29T07:22:21.765Z,28.00
2023-05-29T07:24:48.217Z,27.86
2023-05-29T07:27:14.686Z,27.83
2023-05-29T07:29:41.144Z,27.75
2023-05-29T07:32:07.645Z,27.77
2023-05-29T07:34:34.181Z,27.98
2023-05-29T07:37:02.555Z,28.54
2023-05-29T07:39:29.324Z,29.34
2023-05-29T07:41:55.949Z,28.73
2023-05-29T07:44:22.900Z,28.61
2023-05-29T07:46:49.577Z,28.60
2023-05-29T07:49:16.741Z,28.63
2023-05-29T07:51:43.294Z,28.93
2023-05-29T07:54:09.868Z,28.20
2023-05-29T07:56:36.599Z,28.57
2023-05-29T07:59:04.268Z,28.43
2023-05-29T08:01:30.968Z,29.11
2023-05-29T08:03:57.597Z,28.67
2023-05-29T08:06:24.475Z,28.42
2023-05-29T08:08:53.024Z,28.46
2023-05-29T08:11:20.294Z,27.80
2023-05-29T08:13:46.865Z,27.79
2023-05-29T08:16:15.462Z,28.36
2023-05-29T08:18:42.030Z,28.13
2023-05-29T08:21:10.224Z,28.11
2023-05-29T08:23:36.984Z,27.45
2023-05-29T08:26:04.490Z,27.57
2023-05-29T08:28:30.946Z,27.62
2023-05-29T08:30:57.549Z,27.66
2023-05-29T08:33:24.041Z,27.72
2023-05-29T08:35:50.515Z,27.47
2023-05-29T08:38:17.019Z,26.65
2023-05-29T08:40:43.502Z,26.42
2023-05-29T08:43:23.380Z,26.65
2023-05-29T08:45:54.658Z,26.47
2023-05-29T08:48:24.927Z,26.36
2023-05-29T08:50:54.946Z,26.17
2023-05-29T08:53:25.804Z,25.80
2023-05-29T08:55:56.955Z,25.64
2023-05-29T08:58:24.486Z,25.50
2023-05-29T09:00:51.793Z,25.48
2023-05-29T09:03:19.025Z,25.32
2023-05-29T09:05:45.745Z,25.15
2023-05-29T09:08:13.240Z,24.92
2023-05-29T09:10:42.532Z,24.98
2023-05-29T09:13:10.964Z,25.02
2023-05-29T09:15:39.874Z,25.02
2023-05-29T09:18:06.660Z,25.01
2023-05-29T09:20:33.545Z,24.98
2023-05-29T09:23:08.589Z,24.91
2023-05-29T09:25:40.315Z,24.90
2023-05-29T09:28:09.274Z,24.89
2023-05-29T09:30:40.998Z,25.01
2023-05-29T09:33:09.412Z,25.00
2023-05-29T09:35:43.898Z,25.09
2023-05-29T09:38:14.200Z,25.28
2023-05-29T09:40:46.678Z,25.20
2023-05-29T09:43:18.349Z,25.15
2023-05-29T09:45:46.431Z,25.06
2023-05-29T09:48:19.961Z,24.93
2023-05-29T09:50:49.242Z,24.85
2023-05-29T09:53:20.500Z,24.75
2023-05-29T09:55:48.604Z,24.63
2023-05-29T09:58:16.877Z,24.50
2023-05-29T10:00:44.036Z,24.51
2023-05-29T10:03:17.788Z,24.52
2023-05-29T10:05:47.809Z,24.62
2023-05-29T10:08:16.008Z,24.64
2023-05-29T10:10:49.153Z,24.79
2023-05-29T10:13:16.272Z,25.01
2023-05-29T10:15:46.263Z,25.06
2023-05-29T10:18:27.487Z,25.01
2023-05-29T10:20:58.967Z,25.03
2023-05-29T10:23:27.660Z,25.02
2023-05-29T10:26:05.743Z,25.02
2023-05-29T10:28:32.852Z,24.94
2023-05-29T10:31:11.159Z,24.88
2023-05-29T10:34:04.078Z,24.83
2023-05-29T10:36:43.700Z,24.90
2023-05-29T10:39:10.488Z,24.91
2023-05-29T10:41:40.876Z,25.00
2023-05-29T10:44:42.830Z,25.06
2023-05-29T10:47:10.116Z,25.18
2023-05-29T10:49:36.709Z,25.29
2023-05-29T10:52:05.879Z,25.38
2023-05-29T10:54:48.486Z,25.38
2023-05-29T10:57:15.135Z,25.20
2023-05-29T10:59:41.601Z,25.12
2023-05-29T11:02:09.870Z,24.95
2023-05-29T11:04:37.996Z,24.87
2023-05-29T11:07:07.423Z,24.94
2023-05-29T11:09:38.528Z,25.13
2023-05-29T11:12:26.872Z,25.17
2023-05-29T11:15:08.382Z,25.16
2023-05-29T11:17:39.391Z,25.27
2023-05-29T11:20:07.680Z,25.38
2023-05-29T11:23:00.478Z,25.31
2023-05-29T11:25:28.453Z,25.32
2023-05-29T11:27:55.145Z,25.32
2023-05-29T11:30:22.855Z,25.35
2023-05-29T11:32:50.300Z,25.27
2023-05-29T11:35:20.465Z,25.21
2023-05-29T11:37:47.683Z,25.31
2023-05-29T11:40:18.996Z,25.47
2023-05-29T11:42:48.863Z,25.46
2023-05-29T11:45:17.903Z,25.32
2023-05-29T11:47:54.860Z,25.30
2023-05-29T11:50:23.250Z,25.19
2023-05-29T11:52:50.186Z,25.39
2023-05-29T11:55:16.863Z,25.40
2023-05-29T11:57:43.486Z,25.46
2023-05-29T12:00:14.735Z,25.40
2023-05-29T12:02:43.639Z,25.41
2023-05-29T12:05:11.303Z,25.51
2023-05-29T12:07:38.064Z,25.42
2023-05-29T12:10:12.419Z,25.36
2023-05-29T12:12:40.464Z,25.47
2023-05-29T12:15:09.208Z,25.45
2023-05-29T12:17:36.728Z,25.51
2023-05-29T12:20:07.312Z,25.41
2023-05-29T12:22:38.353Z,25.42
2023-05-29T12:25:16.416Z,25.61
2023-05-29T12:27:47.893Z,25.75
2023-05-29T12:30:31.490Z,25.65
2023-05-29T12:33:01.477Z,25.76
2023-05-29T12:35:29.672Z,25.71
2023-05-29T12:37:59.487Z,25.60
2023-05-29T12:40:30.798Z,25.38
2023-05-29T12:43:07.794Z,25.49
2023-05-29T12:45:35.246Z,25.65
2023-05-29T12:48:04.230Z,25.84
2023-05-29T12:50:41.456Z,25.85
2023-05-29T12:53:12.864Z,25.64
2023-05-29T12:55:42.184Z,25.53
2023-05-29T12:58:10.438Z,25.59
2023-05-29T13:00:41.599Z,25.46
2023-05-29T13:03:09.258Z,25.36
2023-05-29T13:05:36.012Z,25.47
2023-05-29T13:08:02.855Z,25.52
2023-05-29T13:10:29.524Z,25.52
2023-05-29T13:12:56.641Z,25.43
2023-05-29T13:15:27.574Z,25.32
2023-05-29T13:17:54.529Z,25.40
2023-05-29T13:20:22.157Z,25.29
2023-05-29T13:22:51.423Z,25.48
2023-05-29T13:25:21.497Z,25.29
2023-05-29T13:27:49.744Z,25.32
2023-05-29T13:30:17.239Z,25.52
2023-05-29T13:32:43.920Z,25.62
2023-05-29T13:35:11.173Z,25.75
2023-05-29T13:37:38.661Z,25.83
2023-05-29T13:40:06.478Z,25.78
2023-05-29T13:42:33.600Z,25.77
2023-05-29T13:45:00.197Z,25.60
2023-05-29T13:47:29.807Z,25.65
2023-05-29T13:49:56.885Z,25.69
2023-05-29T13:52:23.928Z,25.68
2023-05-29T13:54:50.643Z,25.60
2023-05-29T13:57:17.362Z,25.50
2023-05-29T13:59:46.988Z,25.51
2023-05-29T14:02:13.845Z,25.33
2023-05-29T14:04:40.665Z,25.38
2023-05-29T14:07:07.241Z,25.24
2023-05-29T14:09:33.905Z,25.17
2023-05-29T14:12:01.529Z,25.22
2023-05-29T14:14:28.188Z,25.04
2023-05-29T14:16:55.876Z,25.08
2023-05-29T14:19:25.590Z,25.21
2023-05-29T14:21:52.631Z,25.27
2023-05-29T14:24:19.469Z,25.30
2023-05-29T14:26:48.411Z,25.42
2023-05-29T14:29:15.934Z,25.42
2023-05-29T14:31:43.776Z,25.56
2023-05-29T14:34:11.264Z,25.56
2023-05-29T14:36:38.155Z,25.42
2023-05-29T14:39:05.620Z,25.15
2023-05-29T14:41:32.311Z,25.23
2023-05-29T14:43:59.800Z,25.36
2023-05-29T14:46:27.908Z,25.44
2023-05-29T14:48:55.464Z,25.48
2023-05-29T14:51:22.272Z,25.37
2023-05-29T14:53:48.937Z,25.25
2023-05-29T14:56:15.542Z,25.36
2023-05-29T14:58:42.380Z,25.33
2023-05-29T15:01:09.499Z,25.24
2023-05-29T15:03:36.520Z,24.89
2023-05-29T15:06:04.506Z,25.04
2023-05-29T15:08:35.170Z,25.06
2023-05-29T15:11:03.974Z,25.05
2023-05-29T15:13:33.908Z,25.06
2023-05-29T15:16:00.755Z,25.06
2023-05-29T15:18:28.061Z,25.03
2023-05-29T15:20:54.968Z,25.10
2023-05-29T15:23:24.600Z,25.12
2023-05-29T15:25:51.564Z,24.95
2023-05-29T15:28:20.940Z,24.98
2023-05-29T15:30:47.594Z,25.10
2023-05-29T15:33:25.227Z,25.07
2023-05-29T15:36:01.497Z,25.03
2023-05-29T15:38:28.108Z,24.90
2023-05-29T15:40:54.755Z,24.98
2023-05-29T15:43:21.458Z,25.01
2023-05-29T15:45:49.607Z,24.98
2023-05-29T15:48:16.710Z,24.90
2023-05-29T15:50:43.523Z,24.82
2023-05-29T15:53:10.371Z,24.80
2023-05-29T15:55:37.049Z,24.70
2023-05-29T15:58:03.766Z,24.63
2023-05-29T16:00:31.276Z,24.42
2023-05-29T16:02:58.259Z,24.44
2023-05-29T16:05:24.907Z,24.24
2023-05-29T16:07:53.807Z,24.24
2023-05-29T16:10:25.870Z,24.25
2023-05-29T16:12:52.531Z,24.25
2023-05-29T16:15:20.387Z,24.37
2023-05-29T16:17:47.573Z,24.36
2023-05-29T16:20:16.446Z,24.34
2023-05-29T16:22:43.291Z,24.35
2023-05-29T16:25:10.897Z,24.20
2023-05-29T16:27:37.985Z,24.32
2023-05-29T16:30:05.911Z,24.27
2023-05-29T16:32:32.519Z,24.24
2023-05-29T16:34:59.265Z,24.19
2023-05-29T16:37:27.011Z,24.17
2023-05-29T16:39:55.282Z,24.14
2023-05-29T16:42:21.763Z,24.10
2023-05-29T16:44:50.515Z,24.07
2023-05-29T16:47:18.820Z,24.03
2023-05-29T16:49:45.295Z,24.03
2023-05-29T16:52:12.180Z,23.93
2023-05-29T16:54:41.670Z,23.84
2023-05-29T16:57:09.911Z,23.75
2023-05-29T16:59:37.271Z,23.64
2023-05-29T17:02:04.298Z,23.64
2023-05-29T17:04:30.816Z,23.65
2023-05-29T17:06:57.347Z,23.66
2023-05-29T17:09:27.847Z,23.52
2023-05-29T17:11:55.661Z,23.51
2023-05-29T17:14:23.649Z,23.48
2023-05-29T17:16:56.115Z,23.52
2023-05-29T17:19:28.631Z,23.46
2023-05-29T17:21:55.298Z,23.24
2023-05-29T17:24:21.900Z,23.22
2023-05-29T17:26:48.424Z,23.26
2023-05-29T17:29:16.918Z,23.22
2023-05-29T17:31:44.275Z,23.22
2023-05-29T17:34:13.385Z,23.16
2023-05-29T17:36:39.919Z,23.01
2023-05-29T17:39:06.761Z,22.96
2023-05-29T17:41:33.411Z,22.91
2023-05-29T17:44:00.244Z,22.83
2023-05-29T17:46:26.941Z,22.69
2023-05-29T17:48:53.588Z,22.60
2023-05-29T17:51:22.943Z,22.56
2023-05-29T17:53:50.285Z,22.46
2023-05-29T17:56:29.368Z,22.29
2023-05-29T17:58:56.016Z,22.22
2023-05-29T18:01:22.638Z,22.08
2023-05-29T18:03:49.692Z,22.09
2023-05-29T18:06:16.432Z,22.08
2023-05-29T18:08:45.741Z,22.02
2023-05-29T18:11:12.298Z,22.01
2023-05-29T18:13:38.844Z,21.89
2023-05-29T18:16:10.318Z,21.75
2023-05-29T18:18:37.421Z,21.61
2023-05-29T18:21:04.132Z,21.56
2023-05-29T18:23:31.249Z,21.56
2023-05-29T18:25:57.900Z,21.39
2023-05-29T18:28:27.496Z,21.35
2023-05-29T18:30:55.821Z,21.32
2023-05-29T18:33:22.447Z,21.23
2023-05-29T18:35:48.967Z,21.16
2023-05-29T18:38:15.538Z,20.95
2023-05-29T18:40:43.221Z,20.95
2023-05-29T18:43:10.724Z,20.87
2023-05-29T18:45:37.345Z,20.75
2023-05-29T18:48:04.413Z,20.64
2023-05-29T18:50:30.906Z,20.59
2023-05-29T18:52:57.448Z,20.53
2023-05-29T18:55:23.983Z,20.50
2023-05-29T18:57:50.504Z,20.45
2023-05-29T19:00:17.200Z,20.37
2023-05-29T19:02:53.289Z,20.30
2023-05-29T19:05:23.043Z,20.20
2023-05-29T19:07:51.144Z,20.04
2023-05-29T19:10:18.791Z,19.96
2023-05-29T19:12:46.974Z,19.88
2023-05-29T19:15:16.316Z,19.82
2023-05-29T19:17:43.027Z,19.77
2023-05-29T19:20:17.890Z,19.78
2023-05-29T19:22:51.626Z,19.69
2023-05-29T19:25:18.585Z,19.62
2023-05-29T19:27:46.651Z,19.53
2023-05-29T19:30:14.881Z,19.47
2023-05-29T19:32:41.582Z,19.36
2023-05-29T19:35:09.689Z,19.31
2023-05-29T19:37:36.557Z,19.28
2023-05-29T19:40:07.037Z,19.17
2023-05-29T19:42:33.544Z,19.15
2023-05-29T19:45:00.068Z,19.13
2023-05-29T19:47:26.813Z,19.13
2023-05-29T19:49:53.354Z,19.12
2023-05-29T19:52:19.896Z,19.05
2023-05-29T19:54:47.051Z,18.98
2023-05-29T19:57:13.985Z,18.91
2023-05-29T19:59:43.634Z,18.87
2023-05-29T20:02:11.460Z,18.94
2023-05-29T20:04:42.932Z,18.89
2023-05-29T20:07:09.536Z,18.78
2023-05-29T20:09:36.070Z,18.67
2023-05-29T20:12:03.243Z,18.66
2023-05-29T20:14:29.879Z,18.65
2023-05-29T20:16:56.464Z,18.64
2023-05-29T20:19:24.095Z,18.57
2023-05-29T20:21:50.609Z,18.54
2023-05-29T20:24:17.241Z,18.52
2023-05-29T20:26:43.682Z,18.50
2023-05-29T20:29:10.426Z,18.50
2023-05-29T20:31:36.934Z,18.43
2023-05-29T20:34:03.902Z,18.46
2023-05-29T20:36:30.824Z,18.42
2023-05-29T20:38:59.739Z,18.33
2023-05-29T20:41:26.509Z,18.28
2023-05-29T20:43:54.737Z,18.20
2023-05-29T20:46:24.184Z,18.13
2023-05-29T20:48:50.771Z,18.15
2023-05-29T20:51:17.492Z,18.08
2023-05-29T20:53:45.736Z,18.02
2023-05-29T20:56:12.434Z,17.99
2023-05-29T20:58:39.169Z,18.05
2023-05-29T21:01:09.186Z,17.97
2023-05-29T21:03:46.423Z,17.89
2023-05-29T21:06:13.569Z,17.81
2023-05-29T21:08:40.181Z,17.83
2023-05-29T21:11:06.969Z,17.79
2023-05-29T21:13:34.255Z,17.75
2023-05-29T21:16:00.978Z,17.74
2023-05-29T21:18:27.897Z,17.74
2023-05-29T21:20:54.620Z,17.74
2023-05-29T21:23:21.486Z,17.67
2023-05-29T21:25:47.981Z,17.63
2023-05-29T21:28:14.723Z,17.62
2023-05-29T21:30:41.576Z,17.61
2023-05-29T21:33:08.224Z,17.54
2023-05-29T21:35:37.973Z,17.50
2023-05-29T21:38:04.510Z,17.48
2023-05-29T21:40:31.313Z,17.48
2023-05-29T21:42:58.300Z,17.47
2023-05-29T21:45:24.878Z,17.45
2023-05-29T21:47:51.804Z,17.42
2023-05-29T21:50:19.461Z,17.38
2023-05-29T21:52:46.266Z,17.32
2023-05-29T21:55:13.110Z,17.29
2023-05-29T21:57:39.583Z,17.22
2023-05-29T22:00:09.720Z,17.26
2023-05-29T22:02:36.828Z,17.26
2023-05-29T22:05:04.980Z,17.20
2023-05-29T22:07:32.003Z,17.16
2023-05-29T22:09:58.560Z,17.18
2023-05-29T22:12:26.250Z,17.14
2023-05-29T22:14:56.053Z,17.04
2023-05-29T22:17:22.591Z,17.10
2023-05-29T22:20:07.122Z,16.99
2023-05-29T22:22:34.261Z,16.90
2023-05-29T22:25:02.159Z,16.92
2023-05-29T22:27:28.636Z,16.83
2023-05-29T22:29:55.102Z,16.77
2023-05-29T22:32:22.076Z,16.73
2023-05-29T22:34:48.871Z,16.76
2023-05-29T22:37:15.394Z,16.80
2023-05-29T22:39:42.384Z,16.76
2023-05-29T22:42:09.326Z,16.80
2023-05-29T22:44:35.869Z,16.71
2023-05-29T22:47:02.429Z,16.61
2023-05-29T22:49:28.975Z,16.58
2023-05-29T22:51:57.574Z,16.56
2023-05-29T22:54:25.065Z,16.51
2023-05-29T22:56:51.974Z,16.48
2023-05-29T22:59:18.835Z,16.42
2023-05-29T23:01:45.414Z,16.44
2023-05-29T23:04:12.299Z,16.42
2023-05-29T23:06:40.548Z,16.42
2023-05-29T23:09:08.016Z,16.42
2023-05-29T23:11:34.555Z,16.37
2023-05-29T23:14:01.276Z,16.33
2023-05-29T23:16:27.992Z,16.30
2023-05-29T23:19:01.559Z,16.29
2023-05-29T23:21:36.877Z,16.22
2023-05-29T23:24:03.493Z,16.19
2023-05-29T23:26:40.048Z,16.23
2023-05-29T23:29:10.983Z,16.16
2023-05-29T23:31:43.277Z,16.13
2023-05-29T23:34:19.430Z,16.10
2023-05-29T23:36:50.480Z,16.12
2023-05-29T23:39:19.447Z,16.08
2023-05-29T23:41:48.348Z,16.11
2023-05-29T23:44:24.188Z,16.13
2023-05-29T23:46:51.601Z,16.11
2023-05-29T23:49:18.194Z,16.10
2023-05-29T23:51:49.855Z,16.13
2023-05-29T23:54:16.609Z,16.03
2023-05-29T23:56:45.783Z,16.04
2023-05-29T23:59:15.291Z,15.91
